createdAt,value
2023-03-28T00:02:14.527Z,34.22
2023-03-28T00:04:43.738Z,39.00
2023-03-28T00:07:13.126Z,33.30
2023-03-28T00:09:42.495Z,31.60
2023-03-28T00:12:11.984Z,32.22
2023-03-28T00:14:41.955Z,39.10
2023-03-28T00:17:11.199Z,30.92
2023-03-28T00:19:41.890Z,36.67
2023-03-28T00:22:12.364Z,28.55
2023-03-28T00:24:41.840Z,38.78
2023-03-28T00:27:11.586Z,42.30
2023-03-28T00:29:40.812Z,94.75
2023-03-28T00:32:10.840Z,35.80
2023-03-28T00:34:40.148Z,33.75
2023-03-28T00:37:11.696Z,31.65
2023-03-28T00:39:41.066Z,28.67
2023-03-28T00:44:56.894Z,26.20
2023-03-28T00:47:41.881Z,23.25
2023-03-28T00:50:33.987Z,29.75
2023-03-28T00:53:27.353Z,31.30
2023-03-28T00:56:09.207Z,32.63
2023-03-28T00:58:45.790Z,34.80
2023-03-28T01:01:22.879Z,31.42
2023-03-28T01:04:06.553Z,28.98
2023-03-28T01:06:47.633Z,28.05
2023-03-28T01:09:20.147Z,38.30
2023-03-28T01:11:53.729Z,28.63
2023-03-28T01:14:28.226Z,35.03
2023-03-28T01:16:58.691Z,30.00
2023-03-28T01:20:03.439Z,32.65
2023-03-28T01:23:23.676Z,21.65
2023-03-28T01:26:41.544Z,28.10
2023-03-28T01:32:39.798Z,31.40
2023-03-28T01:35:28.358Z,24.48
2023-03-28T01:38:21.410Z,37.67
2023-03-28T01:41:38.077Z,33.05
2023-03-28T01:44:22.984Z,23.95
2023-03-28T01:47:22.053Z,25.52
2023-03-28T01:50:30.726Z,30.48
2023-03-28T01:53:27.857Z,23.17
2023-03-28T01:56:14.383Z,25.30
2023-03-28T01:59:08.986Z,29.77
2023-03-28T02:02:06.445Z,26.08
2023-03-28T02:04:41.524Z,22.15
2023-03-28T02:07:14.161Z,32.15
2023-03-28T02:09:48.474Z,21.27
2023-03-28T02:12:47.041Z,23.60
2023-03-28T02:15:20.564Z,31.90
2023-03-28T02:18:03.456Z,34.80
2023-03-28T02:20:38.038Z,25.88
2023-03-28T02:23:25.214Z,23.80
2023-03-28T02:25:54.548Z,25.90
2023-03-28T02:28:25.333Z,28.33
2023-03-28T02:30:54.660Z,24.38
2023-03-28T02:33:45.699Z,22.95
2023-03-28T02:37:03.976Z,25.67
2023-03-28T02:39:52.554Z,27.20
2023-03-28T02:42:55.434Z,24.23
2023-03-28T02:46:05.724Z,26.05
2023-03-28T02:48:37.606Z,24.40
2023-03-28T02:51:35.868Z,32.17
2023-03-28T02:54:25.092Z,24.85
2023-03-28T02:57:29.340Z,27.88
2023-03-28T03:00:13.526Z,23.80
2023-03-28T03:02:46.304Z,22.95
2023-03-28T03:05:15.586Z,25.60
2023-03-28T03:07:44.897Z,24.75
2023-03-28T03:10:18.124Z,21.10
2023-03-28T03:12:47.744Z,22.00
2023-03-28T03:15:20.161Z,25.02
2023-03-28T03:17:49.643Z,25.80
2023-03-28T03:20:19.674Z,20.85
2023-03-28T03:22:48.870Z,23.25
2023-03-28T03:25:18.207Z,21.23
2023-03-28T03:27:47.582Z,24.98
2023-03-28T03:30:16.802Z,24.80
2023-03-28T03:32:46.197Z,24.67
2023-03-28T03:35:15.432Z,26.17
2023-03-28T03:37:44.631Z,22.65
2023-03-28T03:40:14.081Z,24.50
2023-03-28T03:42:46.358Z,22.83
2023-03-28T03:45:16.775Z,22.65
2023-03-28T03:47:46.155Z,25.70
2023-03-28T03:50:15.489Z,25.27
2023-03-28T03:52:44.711Z,19.85
2023-03-28T03:55:15.648Z,23.13
2023-03-28T03:57:44.807Z,24.98
2023-03-28T04:00:15.598Z,29.58
2023-03-28T04:02:44.823Z,21.40
2023-03-28T04:05:14.448Z,23.92
2023-03-28T04:07:43.963Z,21.70
2023-03-28T04:10:13.276Z,26.13
2023-03-28T04:12:42.550Z,24.45
2023-03-28T04:15:12.405Z,20.70
2023-03-28T04:17:42.136Z,26.25
2023-03-28T04:20:14.861Z,22.55
2023-03-28T04:22:45.183Z,28.55
2023-03-28T04:25:16.057Z,23.35
2023-03-28T04:27:48.504Z,22.67
2023-03-28T04:30:18.803Z,25.10
2023-03-28T04:32:51.406Z,22.52
2023-03-28T04:35:21.287Z,21.55
2023-03-28T04:37:50.808Z,24.58
2023-03-28T04:40:20.030Z,25.33
2023-03-28T04:42:49.268Z,23.63
2023-03-28T04:45:19.752Z,22.00
2023-03-28T04:47:49.819Z,26.10
2023-03-28T04:50:19.422Z,25.25
2023-03-28T04:52:48.640Z,24.98
2023-03-28T04:55:17.880Z,28.65
2023-03-28T04:57:47.052Z,24.77
2023-03-28T05:00:19.471Z,23.73
2023-03-28T05:02:48.859Z,20.80
2023-03-28T05:05:18.379Z,19.33
2023-03-28T05:07:47.542Z,19.17
2023-03-28T05:10:17.445Z,22.23
2023-03-28T05:12:46.601Z,25.70
2023-03-28T05:15:21.348Z,22.33
2023-03-28T05:17:52.645Z,23.20
2023-03-28T05:20:22.172Z,23.80
2023-03-28T05:22:51.301Z,19.02
2023-03-28T05:25:21.451Z,23.00
2023-03-28T05:27:52.260Z,22.30
2023-03-28T05:30:22.157Z,27.20
2023-03-28T05:32:51.331Z,22.70
2023-03-28T05:35:20.684Z,20.73
2023-03-28T05:37:50.027Z,20.08
2023-03-28T05:40:19.774Z,26.55
2023-03-28T05:42:49.530Z,21.75
2023-03-28T05:45:18.928Z,22.60
2023-03-28T05:47:48.224Z,22.35
2023-03-28T05:50:17.462Z,19.73
2023-03-28T05:52:46.639Z,22.40
2023-03-28T05:55:16.026Z,19.15
2023-03-28T05:57:45.247Z,19.13
2023-03-28T06:00:15.284Z,20.05
2023-03-28T06:02:44.725Z,24.30
2023-03-28T06:05:14.738Z,24.83
2023-03-28T06:07:44.168Z,23.00
2023-03-28T06:10:16.510Z,18.35
2023-03-28T06:12:46.113Z,19.20
2023-03-28T06:15:15.471Z,17.85
2023-03-28T06:17:44.828Z,20.98
2023-03-28T06:20:14.481Z,20.50
2023-03-28T06:22:44.004Z,23.52
2023-03-28T06:25:13.378Z,19.63
2023-03-28T06:27:42.662Z,19.80
2023-03-28T06:30:12.723Z,20.00
2023-03-28T06:32:42.042Z,18.58
2023-03-28T06:35:11.680Z,20.45
2023-03-28T06:37:40.879Z,22.85
2023-03-28T06:40:12.010Z,18.35
2023-03-28T06:42:42.127Z,18.05
2023-03-28T06:45:12.375Z,18.85
2023-03-28T06:47:41.739Z,21.90
2023-03-28T06:50:11.848Z,17.98
2023-03-28T06:52:41.421Z,22.10
2023-03-28T06:55:11.189Z,17.70
2023-03-28T06:57:40.533Z,20.08
2023-03-28T07:00:10.548Z,23.00
2023-03-28T07:02:39.879Z,19.25
2023-03-28T07:05:09.538Z,17.77
2023-03-28T07:07:38.693Z,22.38
2023-03-28T07:10:09.104Z,18.83
2023-03-28T07:12:38.649Z,21.45
2023-03-28T07:15:08.507Z,19.58
2023-03-28T07:17:37.854Z,21.65
2023-03-28T07:20:08.295Z,18.52
2023-03-28T07:22:37.520Z,18.70
2023-03-28T07:25:09.034Z,27.80
2023-03-28T07:27:38.255Z,22.27
2023-03-28T07:30:09.138Z,20.35
2023-03-28T07:32:48.113Z,18.70
2023-03-28T07:35:21.752Z,17.90
2023-03-28T07:37:50.903Z,21.23
2023-03-28T07:40:20.122Z,20.85
2023-03-28T07:42:51.623Z,19.63
2023-03-28T07:45:20.888Z,21.90
2023-03-28T07:47:50.277Z,19.23
2023-03-28T07:50:22.321Z,22.10
2023-03-28T07:52:58.342Z,17.45
2023-03-28T07:55:28.429Z,20.02
2023-03-28T07:57:57.759Z,20.08
2023-03-28T08:00:28.468Z,18.58
2023-03-28T08:02:59.994Z,17.80
2023-03-28T08:05:29.400Z,18.92
2023-03-28T08:07:59.494Z,18.25
2023-03-28T08:10:28.788Z,17.50
2023-03-28T08:12:58.140Z,16.25
2023-03-28T08:15:27.854Z,17.70
2023-03-28T08:17:57.282Z,20.70
2023-03-28T08:20:26.729Z,21.77
2023-03-28T08:22:56.170Z,19.25
2023-03-28T08:25:25.426Z,14.68
2023-03-28T08:27:54.632Z,15.73
2023-03-28T08:30:23.920Z,18.55
2023-03-28T08:32:53.361Z,20.83
2023-03-28T08:35:22.647Z,15.45
2023-03-28T08:37:53.152Z,13.93
2023-03-28T08:40:25.705Z,14.80
2023-03-28T08:43:33.769Z,17.02
2023-03-28T08:46:03.496Z,17.88
2023-03-28T08:48:48.393Z,15.93
2023-03-28T08:51:27.089Z,19.23
2023-03-28T08:54:24.393Z,19.30
2023-03-28T08:59:48.395Z,21.20
2023-03-28T09:02:24.649Z,20.73
2023-03-28T09:04:57.999Z,50.20
2023-03-28T09:08:23.584Z,24.67
2023-03-28T09:11:30.196Z,16.75
2023-03-28T09:14:24.999Z,18.63
2023-03-28T09:17:27.967Z,16.20
2023-03-28T09:20:21.316Z,17.08
2023-03-28T09:23:27.346Z,18.58
2023-03-28T09:26:28.781Z,21.25
2023-03-28T09:29:21.724Z,17.80
2023-03-28T09:31:59.117Z,23.25
2023-03-28T09:34:37.802Z,18.85
2023-03-28T09:37:40.389Z,23.33
2023-03-28T09:40:18.950Z,17.83
2023-03-28T09:43:26.837Z,24.58
2023-03-28T09:46:30.006Z,22.15
2023-03-28T09:48:59.916Z,22.77
2023-03-28T09:51:29.735Z,18.77
2023-03-28T09:53:58.986Z,23.17
2023-03-28T09:56:45.143Z,29.98
2023-03-28T09:59:35.885Z,22.67
2023-03-28T10:02:06.346Z,19.80
2023-03-28T10:04:39.908Z,22.88
2023-03-28T10:07:12.213Z,24.10
2023-03-28T10:09:58.165Z,20.00
2023-03-28T10:12:37.608Z,21.67
2023-03-28T10:15:09.824Z,20.83
2023-03-28T10:17:41.719Z,23.70
2023-03-28T10:20:23.185Z,23.30
2023-03-28T10:22:58.188Z,24.95
2023-03-28T10:25:51.193Z,24.42
2023-03-28T10:28:33.354Z,26.48
2023-03-28T10:31:05.131Z,24.48
2023-03-28T10:33:47.358Z,18.98
2023-03-28T10:36:44.933Z,23.27
2023-03-28T10:39:31.129Z,20.60
2023-03-28T10:42:03.116Z,28.27
2023-03-28T10:44:41.556Z,29.40
2023-03-28T10:47:20.551Z,26.48
2023-03-28T10:49:54.791Z,25.38
2023-03-28T10:53:00.557Z,30.15
2023-03-28T10:56:04.132Z,23.98
2023-03-28T10:58:50.152Z,24.85
2023-03-28T11:01:33.610Z,37.05
2023-03-28T11:04:52.579Z,22.58
2023-03-28T11:07:46.469Z,20.67
2023-03-28T11:10:44.317Z,19.90
2023-03-28T11:14:05.378Z,25.85
2023-03-28T11:17:14.936Z,20.65
2023-03-28T11:20:18.528Z,24.13
2023-03-28T11:23:29.667Z,30.73
2023-03-28T11:26:27.366Z,27.40
2023-03-28T11:29:19.152Z,28.30
2023-03-28T11:32:16.391Z,23.45
2023-03-28T11:35:30.240Z,37.38
2023-03-28T11:38:14.850Z,22.15
2023-03-28T11:41:08.737Z,28.45
2023-03-28T11:43:57.274Z,26.95
2023-03-28T11:46:39.235Z,24.77
2023-03-28T11:49:23.628Z,26.80
2023-03-28T11:52:10.956Z,28.42
2023-03-28T11:54:55.288Z,40.08
2023-03-28T11:57:36.113Z,23.75
2023-03-28T12:00:58.920Z,26.05
2023-03-28T12:03:34.505Z,33.22
2023-03-28T12:06:14.167Z,24.02
2023-03-28T12:09:12.209Z,27.50
2023-03-28T12:11:58.124Z,34.47
2023-03-28T12:15:18.147Z,24.23
2023-03-28T12:18:06.072Z,19.60
2023-03-28T12:20:50.607Z,30.05
2023-03-28T12:23:38.862Z,33.92
2023-03-28T12:26:37.707Z,33.08
2023-03-28T12:29:26.436Z,36.17
2023-03-28T12:32:47.796Z,32.53
2023-03-28T12:35:49.250Z,32.60
2023-03-28T12:38:43.817Z,31.50
2023-03-28T12:41:24.389Z,36.03
2023-03-28T12:44:14.688Z,45.03
2023-03-28T12:47:25.707Z,41.10
2023-03-28T12:50:33.762Z,40.10
2023-03-28T12:53:03.292Z,49.65
2023-03-28T12:55:35.343Z,38.67
2023-03-28T12:58:30.915Z,49.35
2023-03-28T13:01:20.841Z,44.85
2023-03-28T13:04:28.886Z,39.53
2023-03-28T13:07:28.212Z,36.92
2023-03-28T13:10:20.976Z,34.88
2023-03-28T13:13:29.317Z,39.33
2023-03-28T13:16:30.836Z,41.13
2023-03-28T13:19:15.210Z,37.08
2023-03-28T13:21:56.013Z,33.50
2023-03-28T13:24:30.152Z,39.92
2023-03-28T13:27:12.342Z,33.90
2023-03-28T13:30:06.437Z,34.15
2023-03-28T13:32:43.392Z,35.33
2023-03-28T13:35:50.283Z,33.63
2023-03-28T13:38:31.885Z,34.93
2023-03-28T13:41:13.727Z,29.52
2023-03-28T13:43:50.253Z,35.65
2023-03-28T13:46:43.170Z,33.03
2023-03-28T13:49:18.939Z,36.25
2023-03-28T13:52:05.901Z,34.50
2023-03-28T13:54:36.218Z,29.60
2023-03-28T13:57:20.135Z,31.77
2023-03-28T14:00:02.456Z,30.13
2023-03-28T14:02:37.192Z,27.38
2023-03-28T14:05:32.501Z,31.30
2023-03-28T14:08:24.819Z,30.83
2023-03-28T14:10:56.486Z,29.65
2023-03-28T14:13:31.887Z,30.10
2023-03-28T14:16:01.381Z,23.95
2023-03-28T14:18:35.776Z,25.73
2023-03-28T14:21:08.651Z,27.83
2023-03-28T14:23:41.489Z,33.17
2023-03-28T14:26:23.158Z,35.35
2023-03-28T14:28:54.470Z,26.80
2023-03-28T14:31:41.233Z,44.88
2023-03-28T14:34:27.174Z,26.88
2023-03-28T14:37:07.157Z,25.67
2023-03-28T14:39:42.607Z,31.20
2023-03-28T14:42:19.681Z,31.85
2023-03-28T14:44:55.643Z,26.63
2023-03-28T14:47:36.129Z,32.47
2023-03-28T14:50:06.598Z,24.95
2023-03-28T14:52:41.759Z,26.95
2023-03-28T14:55:27.167Z,27.05
2023-03-28T14:57:57.929Z,28.17
2023-03-28T15:00:38.716Z,28.33
2023-03-28T15:03:15.980Z,22.85
2023-03-28T15:05:50.009Z,27.23
2023-03-28T15:08:35.157Z,23.38
2023-03-28T15:11:21.911Z,18.23
2023-03-28T15:14:08.715Z,18.20
2023-03-28T15:16:43.296Z,229.23
2023-03-28T15:19:38.569Z,184.80
2023-03-28T15:22:16.530Z,126.70
2023-03-28T15:24:47.159Z,162.70
2023-03-28T15:27:32.179Z,54.35
2023-03-28T15:30:17.754Z,37.05
2023-03-28T15:32:48.046Z,34.80
2023-03-28T15:35:40.898Z,18.08
2023-03-28T15:38:14.673Z,59.33
2023-03-28T15:40:50.258Z,26.75
2023-03-28T15:43:29.175Z,18.30
2023-03-28T15:46:13.782Z,18.85
2023-03-28T15:48:44.871Z,27.48
2023-03-28T15:51:20.895Z,14.90
2023-03-28T15:53:52.720Z,26.92
2023-03-28T15:56:32.958Z,25.38
2023-03-28T15:59:15.553Z,24.42
2023-03-28T16:01:45.283Z,22.88
2023-03-28T16:04:27.282Z,20.83
2023-03-28T16:07:21.559Z,15.88
2023-03-28T16:09:52.272Z,16.42
2023-03-28T16:12:22.008Z,14.05
2023-03-28T16:14:56.111Z,16.85
2023-03-28T16:17:29.721Z,14.10
2023-03-28T16:20:00.439Z,10.88
2023-03-28T16:22:30.008Z,10.95
2023-03-28T16:24:59.253Z,12.13
2023-03-28T16:27:28.531Z,15.20
2023-03-28T16:29:57.876Z,10.68
2023-03-28T16:32:27.637Z,10.57
2023-03-28T16:34:57.064Z,9.38
2023-03-28T16:37:26.285Z,10.75
2023-03-28T16:39:55.655Z,12.63
2023-03-28T16:42:27.833Z,9.45
2023-03-28T16:44:57.380Z,12.35
2023-03-28T16:47:27.140Z,9.68
2023-03-28T16:49:59.800Z,8.80
2023-03-28T16:52:30.057Z,10.50
2023-03-28T16:54:59.415Z,6.40
2023-03-28T16:57:29.043Z,11.75
2023-03-28T16:59:58.397Z,7.43
2023-03-28T17:02:27.870Z,8.75
2023-03-28T17:04:57.249Z,12.02
2023-03-28T17:07:26.968Z,16.05
2023-03-28T17:09:56.765Z,13.88
2023-03-28T17:12:27.136Z,18.55
2023-03-28T17:14:56.437Z,9.15
2023-03-28T17:17:25.743Z,10.45
2023-03-28T17:19:55.009Z,13.57
2023-03-28T17:22:24.353Z,11.63
2023-03-28T17:24:56.537Z,9.02
2023-03-28T17:27:25.884Z,6.80
2023-03-28T17:29:55.377Z,9.48
2023-03-28T17:32:25.088Z,6.40
2023-03-28T17:34:54.735Z,8.80
2023-03-28T17:37:25.283Z,7.63
2023-03-28T17:39:54.751Z,11.68
2023-03-28T17:42:25.278Z,7.82
2023-03-28T17:44:55.636Z,6.75
2023-03-28T17:47:25.030Z,5.35
2023-03-28T17:49:56.934Z,6.55
2023-03-28T17:52:26.259Z,6.20
2023-03-28T17:54:55.522Z,7.20
2023-03-28T17:57:25.144Z,6.95
2023-03-28T17:59:55.597Z,4.60
2023-03-28T18:02:25.931Z,6.13
2023-03-28T18:04:55.312Z,6.78
2023-03-28T18:07:24.810Z,8.68
2023-03-28T18:09:54.792Z,10.85
2023-03-28T18:12:24.184Z,13.25
2023-03-28T18:14:53.432Z,5.95
2023-03-28T18:17:23.967Z,5.60
2023-03-28T18:19:53.449Z,7.10
2023-03-28T18:22:22.970Z,5.30
2023-03-28T18:24:52.249Z,8.77
2023-03-28T18:27:21.501Z,7.63
2023-03-28T18:29:50.814Z,7.00
2023-03-28T18:32:20.231Z,7.70
2023-03-28T18:34:49.475Z,7.07
2023-03-28T18:37:18.737Z,12.65
2023-03-28T18:39:48.090Z,9.70
2023-03-28T18:42:17.484Z,10.68
2023-03-28T18:44:47.573Z,9.55
2023-03-28T18:47:17.698Z,11.93
2023-03-28T18:49:47.211Z,9.43
2023-03-28T18:52:16.681Z,9.95
2023-03-28T18:54:46.794Z,9.02
2023-03-28T18:57:17.007Z,10.32
2023-03-28T18:59:46.529Z,9.60
2023-03-28T19:02:18.583Z,10.90
2023-03-28T19:04:48.422Z,13.23
2023-03-28T19:07:19.952Z,10.88
2023-03-28T19:09:49.839Z,13.75
2023-03-28T19:12:19.065Z,21.80
2023-03-28T19:14:48.356Z,11.45
2023-03-28T19:17:17.820Z,23.83
2023-03-28T19:19:47.198Z,16.83
2023-03-28T19:22:16.596Z,15.20
2023-03-28T19:24:45.875Z,14.02
2023-03-28T19:27:15.148Z,12.35
2023-03-28T19:29:44.403Z,15.63
2023-03-28T19:32:13.699Z,12.48
2023-03-28T19:34:42.940Z,11.65
2023-03-28T19:37:12.629Z,10.48
2023-03-28T19:39:42.069Z,12.95
2023-03-28T19:42:11.614Z,13.10
2023-03-28T19:44:40.896Z,12.80
2023-03-28T19:47:10.100Z,10.80
2023-03-28T19:49:39.743Z,12.07
2023-03-28T19:52:10.856Z,14.23
2023-03-28T19:54:40.436Z,10.77
2023-03-28T19:57:09.805Z,11.15
2023-03-28T19:59:39.450Z,20.42
2023-03-28T20:02:10.618Z,16.05
2023-03-28T20:04:39.979Z,15.25
2023-03-28T20:07:09.296Z,11.85
2023-03-28T20:09:38.577Z,11.32
2023-03-28T20:12:08.022Z,13.35
2023-03-28T20:14:37.321Z,25.25
2023-03-28T20:17:06.644Z,18.98
2023-03-28T20:19:38.620Z,10.63
2023-03-28T20:22:09.007Z,12.40
2023-03-28T20:24:38.629Z,16.83
2023-03-28T20:27:07.898Z,12.82
2023-03-28T20:29:38.380Z,10.90
2023-03-28T20:32:09.825Z,13.70
2023-03-28T20:34:39.661Z,13.60
2023-03-28T20:37:09.322Z,12.50
2023-03-28T20:39:38.609Z,17.15
2023-03-28T20:42:08.166Z,12.98
2023-03-28T20:44:40.518Z,11.98
2023-03-28T20:47:11.658Z,11.73
2023-03-28T20:49:47.234Z,15.10
2023-03-28T20:52:16.707Z,15.05
2023-03-28T20:54:47.162Z,11.45
2023-03-28T20:57:16.475Z,15.85
2023-03-28T20:59:45.798Z,15.45
2023-03-28T21:02:15.817Z,13.02
2023-03-28T21:04:45.355Z,14.50
2023-03-28T21:07:15.044Z,12.07
2023-03-28T21:09:44.450Z,13.45
2023-03-28T21:12:13.738Z,14.98
2023-03-28T21:14:42.988Z,15.32
2023-03-28T21:17:26.147Z,12.02
2023-03-28T21:19:55.903Z,11.18
2023-03-28T21:22:25.153Z,13.35
2023-03-28T21:24:54.512Z,11.73
2023-03-28T21:27:23.792Z,12.70
2023-03-28T21:29:53.388Z,16.13
2023-03-28T21:32:22.718Z,12.30
2023-03-28T21:34:52.219Z,14.77
2023-03-28T21:37:21.418Z,14.88
2023-03-28T21:39:50.715Z,12.07
2023-03-28T21:42:19.957Z,14.77
2023-03-28T21:44:49.213Z,13.27
2023-03-28T21:47:18.512Z,13.57
2023-03-28T21:49:50.307Z,25.42
2023-03-28T21:52:20.593Z,20.67
2023-03-28T21:54:49.848Z,15.07
2023-03-28T21:57:19.161Z,14.48
2023-03-28T21:59:48.464Z,16.90
2023-03-28T22:02:18.088Z,18.90
2023-03-28T22:04:48.141Z,13.65
2023-03-28T22:07:17.410Z,12.55
2023-03-28T22:09:46.639Z,21.33
2023-03-28T22:12:15.891Z,13.20
2023-03-28T22:14:45.177Z,12.95
2023-03-28T22:17:14.890Z,16.73
2023-03-28T22:19:43.974Z,17.27
2023-03-28T22:22:13.067Z,20.40
2023-03-28T22:24:42.236Z,20.33
2023-03-28T22:27:11.755Z,18.98
2023-03-28T22:29:41.010Z,15.00
2023-03-28T22:32:10.260Z,14.35
2023-03-28T22:34:39.557Z,19.63
2023-03-28T22:37:10.050Z,18.08
2023-03-28T22:39:39.157Z,19.92
2023-03-28T22:42:09.576Z,27.58
2023-03-28T22:44:38.863Z,16.40
2023-03-28T22:47:07.915Z,24.63
2023-03-28T22:49:39.192Z,25.60
2023-03-28T22:52:08.360Z,21.15
2023-03-28T22:54:38.635Z,15.18
2023-03-28T22:57:08.180Z,16.15
2023-03-28T22:59:37.369Z,20.85
2023-03-28T23:02:07.077Z,16.48
2023-03-28T23:04:36.286Z,20.08
2023-03-28T23:07:05.636Z,18.85
2023-03-28T23:09:34.959Z,24.27
2023-03-28T23:12:04.214Z,20.92
2023-03-28T23:14:34.137Z,16.13
2023-03-28T23:17:04.591Z,16.70
2023-03-28T23:19:34.078Z,18.50
2023-03-28T23:22:03.499Z,28.55
2023-03-28T23:24:32.958Z,20.80
2023-03-28T23:27:02.199Z,22.45
2023-03-28T23:29:31.900Z,20.90
2023-03-28T23:32:01.344Z,25.10
2023-03-28T23:34:30.636Z,26.20
2023-03-28T23:37:02.513Z,33.00
2023-03-28T23:39:32.253Z,29.77
2023-03-28T23:42:01.592Z,16.45
2023-03-28T23:44:31.784Z,18.80
2023-03-28T23:47:01.872Z,17.08
2023-03-28T23:49:31.266Z,24.38
2023-03-28T23:52:00.872Z,18.02
2023-03-28T23:54:31.522Z,23.05
2023-03-28T23:57:00.848Z,26.88
2023-03-28T23:59:30.962Z,17.48
